VTD663 UWSG-UWSG
Flight info
| Callsign | VTD663 |
|---|---|
| Flight time | 0h 6m |
| Altitude | 1100 |
| Route | RA/A015 |
| Aircraft | C172/L-SDE3L/C |
Departure
| Time | 2026-04-27 13:36 |
|---|---|
| Airport | Gagarin International Airport (UWSG) |
Arrival
| Time | 2026-04-27 13:43 |
|---|---|
| Airport | Gagarin International Airport (UWSG) |
| Time | Latitude | Longitude | Altitude | Speed | Heading |
|---|---|---|---|---|---|
| 2026-04-27 13:14 | 51.71555 | 46.17257 | 4 ft | 0 kts | 151° |
| 2026-04-27 13:26 | 51.71554 | 46.17257 | 4 ft | 1 kts | 151° |
| 2026-04-27 13:26 | 51.71530 | 46.17283 | 4 ft | 7 kts | 133° |
| 2026-04-27 13:26 | 51.71518 | 46.17387 | 4 ft | 8 kts | 102° |
| 2026-04-27 13:26 | 51.71463 | 46.17420 | 4 ft | 11 kts | 182° |
| 2026-04-27 13:27 | 51.71389 | 46.17416 | 4 ft | 6 kts | 184° |
| 2026-04-27 13:27 | 51.71372 | 46.17415 | 4 ft | 0 kts | 183° |
| 2026-04-27 13:30 | 51.71366 | 46.17414 | 4 ft | 3 kts | 182° |
| 2026-04-27 13:31 | 51.71320 | 46.17411 | 4 ft | 9 kts | 182° |
| 2026-04-27 13:31 | 51.71262 | 46.17458 | 4 ft | 10 kts | 111° |
| 2026-04-27 13:31 | 51.71252 | 46.17604 | 4 ft | 16 kts | 95° |
| 2026-04-27 13:31 | 51.71244 | 46.17796 | 4 ft | 16 kts | 92° |
| 2026-04-27 13:32 | 51.71240 | 46.18011 | 4 ft | 21 kts | 93° |
| 2026-04-27 13:32 | 51.71235 | 46.18247 | 4 ft | 18 kts | 93° |
| 2026-04-27 13:32 | 51.71230 | 46.18425 | 4 ft | 15 kts | 92° |
| 2026-04-27 13:32 | 51.71226 | 46.18626 | 4 ft | 20 kts | 91° |
| 2026-04-27 13:33 | 51.71220 | 46.18854 | 4 ft | 15 kts | 91° |
| 2026-04-27 13:33 | 51.71205 | 46.19051 | 4 ft | 19 kts | 94° |
| 2026-04-27 13:33 | 51.71214 | 46.19205 | 4 ft | 5 kts | 347° |
| 2026-04-27 13:33 | 51.71222 | 46.19186 | 4 ft | 3 kts | 249° |
| 2026-04-27 13:34 | 51.71217 | 46.19152 | 4 ft | 0 kts | 271° |
| 2026-04-27 13:35 | 51.71217 | 46.19126 | 4 ft | 17 kts | 266° |
| 2026-04-27 13:35 | 51.71236 | 46.18623 | 102 ft | 58 kts | 266° |
| 2026-04-27 13:36 | 51.71240 | 46.17981 | 401 ft | 54 kts | 261° |
| 2026-04-27 13:36 | 51.71237 | 46.17392 | 693 ft | 52 kts | 264° |
| 2026-04-27 13:36 | 51.71259 | 46.16791 | 901 ft | 56 kts | 268° |
| 2026-04-27 13:36 | 51.71296 | 46.16148 | 1104 ft | 61 kts | 269° |
| 2026-04-27 13:37 | 51.71320 | 46.15375 | 1138 ft | 73 kts | 267° |
| 2026-04-27 13:37 | 51.71349 | 46.14498 | 1150 ft | 78 kts | 273° |
| 2026-04-27 13:37 | 51.71715 | 46.13769 | 1133 ft | 100 kts | 321° |
| 2026-04-27 13:37 | 51.72484 | 46.13784 | 1137 ft | 118 kts | 2° |
| 2026-04-27 13:38 | 51.73259 | 46.14146 | 1155 ft | 115 kts | 355° |
| 2026-04-27 13:38 | 51.74051 | 46.14245 | 1177 ft | 117 kts | 358° |
| 2026-04-27 13:38 | 51.74791 | 46.14990 | 1164 ft | 135 kts | 46° |
| 2026-04-27 13:38 | 51.75042 | 46.16418 | 1135 ft | 135 kts | 92° |
| 2026-04-27 13:39 | 51.75069 | 46.17915 | 1144 ft | 129 kts | 93° |
| 2026-04-27 13:39 | 51.75060 | 46.19359 | 1131 ft | 129 kts | 95° |
| 2026-04-27 13:39 | 51.75035 | 46.20813 | 1099 ft | 130 kts | 96° |
| 2026-04-27 13:39 | 51.74952 | 46.22253 | 1066 ft | 125 kts | 111° |
| 2026-04-27 13:40 | 51.74483 | 46.23291 | 1055 ft | 107 kts | 161° |
| 2026-04-27 13:40 | 51.73824 | 46.23600 | 1031 ft | 95 kts | 191° |
| 2026-04-27 13:40 | 51.73192 | 46.23635 | 1065 ft | 80 kts | 193° |
| 2026-04-27 13:40 | 51.72660 | 46.23634 | 1019 ft | 73 kts | 199° |
| 2026-04-27 13:41 | 51.72159 | 46.23574 | 926 ft | 72 kts | 201° |
| 2026-04-27 13:41 | 51.71661 | 46.23512 | 843 ft | 72 kts | 198° |
| 2026-04-27 13:41 | 51.71244 | 46.23257 | 748 ft | 58 kts | 240° |
| 2026-04-27 13:41 | 51.71138 | 46.22640 | 623 ft | 59 kts | 269° |
| 2026-04-27 13:42 | 51.71156 | 46.22011 | 528 ft | 57 kts | 269° |
| 2026-04-27 13:42 | 51.71179 | 46.21387 | 442 ft | 54 kts | 270° |
| 2026-04-27 13:42 | 51.71186 | 46.20800 | 308 ft | 50 kts | 265° |
| 2026-04-27 13:42 | 51.71184 | 46.20200 | 186 ft | 53 kts | 272° |
| 2026-04-27 13:43 | 51.71207 | 46.19611 | 99 ft | 54 kts | 268° |
| 2026-04-27 13:43 | 51.71217 | 46.19047 | 9 ft | 49 kts | 267° |
| 2026-04-27 13:43 | 51.71225 | 46.18572 | 53 ft | 46 kts | 267° |
| 2026-04-27 13:43 | 51.71240 | 46.18034 | 249 ft | 46 kts | 268° |
| 2026-04-27 13:44 | 51.71237 | 46.17499 | 416 ft | 50 kts | 264° |
| 2026-04-27 13:44 | 51.71215 | 46.16961 | 623 ft | 50 kts | 263° |
| 2026-04-27 13:44 | 51.71198 | 46.16336 | 783 ft | 60 kts | 268° |
| 2026-04-27 13:44 | 51.71232 | 46.15664 | 998 ft | 62 kts | 269° |
| 2026-04-27 13:45 | 51.71282 | 46.14948 | 1141 ft | 71 kts | 271° |
| 2026-04-27 13:45 | 51.71357 | 46.14133 | 1188 ft | 76 kts | 273° |
| 2026-04-27 13:45 | 51.71616 | 46.13331 | 1175 ft | 94 kts | 308° |
| 2026-04-27 13:45 | 51.72319 | 46.13131 | 1155 ft | 119 kts | 1° |
| 2026-04-27 13:46 | 51.73126 | 46.13475 | 1170 ft | 118 kts | 359° |
| 2026-04-27 13:46 | 51.73929 | 46.13906 | 1125 ft | 133 kts | 24° |
| 2026-04-27 13:46 | 51.74460 | 46.15154 | 1118 ft | 140 kts | 74° |
| 2026-04-27 13:46 | 51.74523 | 46.16702 | 1113 ft | 134 kts | 93° |
| 2026-04-27 13:47 | 51.74493 | 46.18185 | 1124 ft | 132 kts | 97° |
| 2026-04-27 13:47 | 51.74434 | 46.19637 | 1154 ft | 130 kts | 97° |
| 2026-04-27 13:47 | 51.74364 | 46.21083 | 1146 ft | 130 kts | 99° |
| 2026-04-27 13:47 | 51.74181 | 46.22485 | 1118 ft | 125 kts | 127° |
| 2026-04-27 13:48 | 51.73595 | 46.23312 | 1127 ft | 103 kts | 177° |
| 2026-04-27 13:48 | 51.72900 | 46.23615 | 1124 ft | 101 kts | 180° |
| 2026-04-27 13:48 | 51.72298 | 46.23822 | 1183 ft | 78 kts | 188° |
| 2026-04-27 13:48 | 51.71753 | 46.23965 | 1076 ft | 79 kts | 188° |
| 2026-04-27 13:49 | 51.71303 | 46.23799 | 932 ft | 60 kts | 238° |
| 2026-04-27 13:49 | 51.71147 | 46.23179 | 736 ft | 58 kts | 255° |
| 2026-04-27 13:49 | 51.71140 | 46.22480 | 536 ft | 61 kts | 272° |
| 2026-04-27 13:49 | 51.71185 | 46.21832 | 419 ft | 61 kts | 266° |
| 2026-04-27 13:50 | 51.71176 | 46.21147 | 295 ft | 63 kts | 266° |
| 2026-04-27 13:50 | 51.71199 | 46.20495 | 208 ft | 52 kts | 270° |
| 2026-04-27 13:50 | 51.71200 | 46.19928 | 92 ft | 48 kts | 264° |
| 2026-04-27 13:50 | 51.71209 | 46.19404 | 40 ft | 48 kts | 267° |
| 2026-04-27 13:51 | 51.71220 | 46.18908 | 4 ft | 41 kts | 266° |
| 2026-04-27 13:51 | 51.71225 | 46.18568 | 4 ft | 22 kts | 269° |
| 2026-04-27 13:51 | 51.71232 | 46.18360 | 4 ft | 17 kts | 276° |
| 2026-04-27 13:51 | 51.71240 | 46.18174 | 4 ft | 19 kts | 274° |
| 2026-04-27 13:52 | 51.71246 | 46.17924 | 4 ft | 20 kts | 270° |
| 2026-04-27 13:52 | 51.71250 | 46.17694 | 4 ft | 21 kts | 271° |
| 2026-04-27 13:52 | 51.71257 | 46.17478 | 4 ft | 13 kts | 284° |
| 2026-04-27 13:52 | 51.71304 | 46.17410 | 4 ft | 10 kts | 354° |
| 2026-04-27 13:53 | 51.71527 | 46.17379 | 4 ft | 9 kts | 321° |
| 2026-04-27 13:53 | 51.71572 | 46.17331 | 4 ft | 5 kts | 324° |
| 2026-04-27 13:53 | 51.71574 | 46.17329 | 4 ft | 0 kts | 322° |